Fairchem Aldebaran — D5MP6 — position and weather

sailwx.info

Track history (hours):
 
Tides and Currents Weather Stations Pressure Air Temp Water Temp Dewpoint Dewpoint Depression Visibility Wind Speed Wind Dir Waves Ship Positions

Fairchem Aldebaran

Last reported at 2018-Feb-03 04:50 UTC. Time now 2018-Feb-17 20:15 UTC.
Position N 29°24' W 094°49'.
Warning: this ship's position is 14 days out of date.

Length 146 m; draft 8 m.

Type: Tanker. MMSI: 636017765.

Date/timePositionNaut miles runAvg speedWind from/ knotsBaromVisibWave heightAir tempDewpointWater temp
2018-Feb-03 04:50N 29°24' W 094°49'911.4
2018-Feb-03 04:01N 29°32' W 094°54'611.5
2018-Feb-03 03:30N 29°37' W 094°57'7 0.2
2018-Feb-01 09:22N 29°43' W 095°01'0 0.0
2018-Feb-01 04:22N 29°43' W 095°01'0 0.0
2018-Feb-01 03:55N 29°43' W 095°01'0 0.0
2018-Jan-31 15:52N 29°43' W 095°01'0 0.0
2018-Jan-31 14:31N 29°43' W 095°01'0 0.0
2018-Jan-31 14:07N 29°43' W 095°01'0 0.0
2018-Jan-31 12:58N 29°43' W 095°01'0 0.0
2018-Jan-31 12:28N 29°43' W 095°01'0 0.0
2018-Jan-31 11:55N 29°43' W 095°01'0 0.0
2018-Jan-31 11:22N 29°43' W 095°01'0 0.0
2018-Jan-31 10:52N 29°43' W 095°01'0 0.0
2018-Jan-31 10:25N 29°43' W 095°01'0 0.0
2018-Jan-31 09:58N 29°43' W 095°01'0 0.0
2018-Jan-31 09:07N 29°43' W 095°01'0 0.0
2018-Jan-31 08:58N 29°43' W 095°01'0 0.0
2018-Jan-31 08:28N 29°43' W 095°01'0 0.0
2018-Jan-31 07:58N 29°43' W 095°01'0 0.0
2018-Jan-31 07:28N 29°43' W 095°01'0 0.0
2018-Jan-31 06:58N 29°43' W 095°01'0 0.0
2018-Jan-31 06:13N 29°43' W 095°01'0 0.0
2018-Jan-31 06:00N 29°43' W 095°01'2 3.7
2018-Jan-31 05:30N 29°42' W 094°60'5 9.8
2018-Jan-31 05:00N 29°37' W 094°58'612.7
2018-Jan-31 04:30N 29°32' W 094°54'713.6
2018-Jan-31 04:00N 29°26' W 094°50'713.7
2018-Jan-31 03:30N 29°21' W 094°45'713.2
2018-Jan-31 02:59N 29°19' W 094°38'3 6.0
2018-Jan-31 02:30N 29°17' W 094°35'3 5.3
2018-Jan-31 01:59N 29°14' W 094°35'4 7.8
2018-Jan-31 01:26N 29°15' W 094°40'0 0.0
2018-Jan-30 23:01N 29°15' W 094°40'0 0.0
2018-Jan-30 15:58N 29°15' W 094°40'0 0.0
2018-Jan-30 15:25N 29°15' W 094°40'0 0.0
2018-Jan-30 14:19N 29°15' W 094°40'0 0.0
2018-Jan-30 13:28N 29°15' W 094°40'0 0.0
2018-Jan-30 12:55N 29°15' W 094°40'0 0.0
2018-Jan-30 12:25N 29°15' W 094°40'0 0.0
2018-Jan-30 11:37N 29°15' W 094°40'0 0.0
2018-Jan-29 16:37N 29°15' W 094°40'0 0.0
2018-Jan-29 16:28N 29°15' W 094°40'0 0.0
2018-Jan-29 15:58N 29°15' W 094°40'0 0.0
2018-Jan-29 15:16N 29°15' W 094°40'0 0.0
2018-Jan-29 14:58N 29°15' W 094°40'0 0.0
2018-Jan-29 14:28N 29°15' W 094°40'0 0.0
2018-Jan-29 13:55N 29°15' W 094°40'0 0.0
2018-Jan-29 13:25N 29°15' W 094°40'0 0.0
2018-Jan-29 12:52N 29°15' W 094°40'0 0.0
2018-Jan-29 12:25N 29°15' W 094°40'0 0.0
2018-Jan-29 11:58N 29°15' W 094°40'0 0.0
2018-Jan-29 11:22N 29°15' W 094°40'  
2018-Jan-26 22:35N 29°23' W 094°49'112.2
2018-Jan-26 22:31N 29°24' W 094°49'612.0
2018-Jan-26 21:59N 29°30' W 094°52'612.0
2018-Jan-26 21:31N 29°34' W 094°56'510.5
2018-Jan-26 21:01N 29°39' W 094°58'5 9.1
2018-Jan-26 20:31N 29°43' W 095°01'4 7.7
2018-Jan-26 20:01N 29°46' W 095°04'  
2018-Jan-24 07:27N 29°45' W 095°06'3 5.2
2018-Jan-24 06:58N 29°44' W 095°03'3 6.5
2018-Jan-24 06:30N 29°42' W 095°00'4 9.0
2018-Jan-24 06:01N 29°38' W 094°58'5 9.9
2018-Jan-24 05:31N 29°34' W 094°55'611.8
2018-Jan-24 04:58N 29°28' W 094°51'  
Track history (hours):
 
Tides and Currents Weather Stations Pressure Air Temp Water Temp Dewpoint Dewpoint Depression Visibility Wind Speed Wind Dir Waves Ship Positions

Fairchem Aldebaran

Last reported at 2018-Feb-03 04:50 UTC. Time now 2018-Feb-17 20:15 UTC.
Position N 29°24' W 094°49'.
Warning: this ship's position is 14 days out of date.

Length 146 m; draft 8 m.

Type: Tanker. MMSI: 636017765.

Date/timePositionNaut miles runAvg speedWind from/ knotsBaromVisibWave heightAir tempDewpointWater temp
2018-Feb-03 04:50N 29°24' W 094°49'911.4
2018-Feb-03 04:01N 29°32' W 094°54'611.5
2018-Feb-03 03:30N 29°37' W 094°57'7 0.2
2018-Feb-01 09:22N 29°43' W 095°01'0 0.0
2018-Feb-01 04:22N 29°43' W 095°01'0 0.0
2018-Feb-01 03:55N 29°43' W 095°01'0 0.0
2018-Jan-31 15:52N 29°43' W 095°01'0 0.0
2018-Jan-31 14:31N 29°43' W 095°01'0 0.0
2018-Jan-31 14:07N 29°43' W 095°01'0 0.0
2018-Jan-31 12:58N 29°43' W 095°01'0 0.0
2018-Jan-31 12:28N 29°43' W 095°01'0 0.0
2018-Jan-31 11:55N 29°43' W 095°01'0 0.0
2018-Jan-31 11:22N 29°43' W 095°01'0 0.0
2018-Jan-31 10:52N 29°43' W 095°01'0 0.0
2018-Jan-31 10:25N 29°43' W 095°01'0 0.0
2018-Jan-31 09:58N 29°43' W 095°01'0 0.0
2018-Jan-31 09:07N 29°43' W 095°01'0 0.0
2018-Jan-31 08:58N 29°43' W 095°01'0 0.0
2018-Jan-31 08:28N 29°43' W 095°01'0 0.0
2018-Jan-31 07:58N 29°43' W 095°01'0 0.0
2018-Jan-31 07:28N 29°43' W 095°01'0 0.0
2018-Jan-31 06:58N 29°43' W 095°01'0 0.0
2018-Jan-31 06:13N 29°43' W 095°01'0 0.0
2018-Jan-31 06:00N 29°43' W 095°01'2 3.7
2018-Jan-31 05:30N 29°42' W 094°60'5 9.8
2018-Jan-31 05:00N 29°37' W 094°58'612.7
2018-Jan-31 04:30N 29°32' W 094°54'713.6
2018-Jan-31 04:00N 29°26' W 094°50'713.7
2018-Jan-31 03:30N 29°21' W 094°45'713.2
2018-Jan-31 02:59N 29°19' W 094°38'3 6.0
2018-Jan-31 02:30N 29°17' W 094°35'3 5.3
2018-Jan-31 01:59N 29°14' W 094°35'4 7.8
2018-Jan-31 01:26N 29°15' W 094°40'0 0.0
2018-Jan-30 23:01N 29°15' W 094°40'0 0.0
2018-Jan-30 15:58N 29°15' W 094°40'0 0.0
2018-Jan-30 15:25N 29°15' W 094°40'0 0.0
2018-Jan-30 14:19N 29°15' W 094°40'0 0.0
2018-Jan-30 13:28N 29°15' W 094°40'0 0.0
2018-Jan-30 12:55N 29°15' W 094°40'0 0.0
2018-Jan-30 12:25N 29°15' W 094°40'0 0.0
2018-Jan-30 11:37N 29°15' W 094°40'0 0.0
2018-Jan-29 16:37N 29°15' W 094°40'0 0.0
2018-Jan-29 16:28N 29°15' W 094°40'0 0.0
2018-Jan-29 15:58N 29°15' W 094°40'0 0.0
2018-Jan-29 15:16N 29°15' W 094°40'0 0.0
2018-Jan-29 14:58N 29°15' W 094°40'0 0.0
2018-Jan-29 14:28N 29°15' W 094°40'0 0.0
2018-Jan-29 13:55N 29°15' W 094°40'0 0.0
2018-Jan-29 13:25N 29°15' W 094°40'0 0.0
2018-Jan-29 12:52N 29°15' W 094°40'0 0.0
2018-Jan-29 12:25N 29°15' W 094°40'0 0.0
2018-Jan-29 11:58N 29°15' W 094°40'0 0.0
2018-Jan-29 11:22N 29°15' W 094°40'  
2018-Jan-26 22:35N 29°23' W 094°49'112.2
2018-Jan-26 22:31N 29°24' W 094°49'612.0
2018-Jan-26 21:59N 29°30' W 094°52'612.0
2018-Jan-26 21:31N 29°34' W 094°56'510.5
2018-Jan-26 21:01N 29°39' W 094°58'5 9.1
2018-Jan-26 20:31N 29°43' W 095°01'4 7.7
2018-Jan-26 20:01N 29°46' W 095°04'  
2018-Jan-24 07:27N 29°45' W 095°06'3 5.2
2018-Jan-24 06:58N 29°44' W 095°03'3 6.5
2018-Jan-24 06:30N 29°42' W 095°00'4 9.0
2018-Jan-24 06:01N 29°38' W 094°58'5 9.9
2018-Jan-24 05:31N 29°34' W 094°55'611.8
2018-Jan-24 04:58N 29°28' W 094°51'  

Dump ship's entire track history